createdAt,value
2022-12-20T00:01:56.333Z,96325.31
2022-12-20T00:04:24.449Z,96321.91
2022-12-20T00:06:52.528Z,96320.28
2022-12-20T00:09:21.990Z,96313.06
2022-12-20T00:11:49.918Z,96327.19
2022-12-20T00:14:18.222Z,96314.78
2022-12-20T00:16:46.234Z,96328.31
2022-12-20T00:19:14.210Z,96310.88
2022-12-20T00:21:42.151Z,96332.47
2022-12-20T00:24:11.641Z,96332.31
2022-12-20T00:26:41.203Z,96331.47
2022-12-20T00:29:09.139Z,96344.84
2022-12-20T00:31:37.246Z,96321.97
2022-12-20T00:34:05.400Z,96314.47
2022-12-20T00:36:34.457Z,96326.97
2022-12-20T00:39:03.162Z,96328.50
2022-12-20T00:41:32.620Z,96337.94
2022-12-20T00:44:02.195Z,96308.47
2022-12-20T00:46:31.774Z,96316.63
2022-12-20T00:49:00.242Z,96315.75
2022-12-20T00:51:30.210Z,96321.38
2022-12-20T00:53:58.629Z,96327.84
2022-12-20T00:56:26.817Z,96322.91
2022-12-20T00:58:55.134Z,96324.22
2022-12-20T01:01:27.069Z,96340.13
2022-12-20T01:03:55.806Z,96315.78
2022-12-20T01:06:25.143Z,96329.84
2022-12-20T01:08:53.669Z,96312.88
2022-12-20T01:11:23.332Z,96313.16
2022-12-20T01:13:54.476Z,96329.69
2022-12-20T01:16:25.684Z,96314.31
2022-12-20T01:18:54.784Z,96315.50
2022-12-20T01:21:24.141Z,96322.63
2022-12-20T01:23:52.560Z,96305.28
2022-12-20T01:26:23.557Z,96314.31
2022-12-20T01:28:54.981Z,96299.53
2022-12-20T01:31:25.160Z,96306.72
2022-12-20T01:33:53.598Z,96301.19
2022-12-20T01:36:25.285Z,96293.22
2022-12-20T01:38:57.474Z,96297.13
2022-12-20T01:41:25.621Z,96287.16
2022-12-20T01:43:55.780Z,96286.34
2022-12-20T01:46:27.031Z,96283.28
2022-12-20T01:49:00.096Z,96290.56
2022-12-20T01:51:30.637Z,96279.72
2022-12-20T01:54:03.527Z,96272.34
2022-12-20T01:56:31.883Z,96277.09
2022-12-20T01:59:02.108Z,96284.91
2022-12-20T02:01:31.680Z,96269.00
2022-12-20T02:03:59.876Z,96277.91
2022-12-20T02:06:28.676Z,96262.06
2022-12-20T02:09:00.087Z,96260.69
2022-12-20T02:11:53.739Z,96262.94
2022-12-20T02:14:37.876Z,96272.44
2022-12-20T02:17:14.897Z,96258.16
2022-12-20T02:20:08.496Z,96280.03
2022-12-20T02:22:51.605Z,96267.50
2022-12-20T02:25:46.153Z,96266.59
2022-12-20T02:28:32.831Z,96269.38
2022-12-20T02:31:06.914Z,96273.31
2022-12-20T02:33:35.032Z,96260.13
2022-12-20T02:36:04.626Z,96262.66
2022-12-20T02:38:34.863Z,96264.63
2022-12-20T02:41:06.513Z,96271.00
2022-12-20T02:43:55.320Z,96267.84
2022-12-20T02:46:27.404Z,96259.91
2022-12-20T02:49:00.318Z,96266.59
2022-12-20T02:51:31.716Z,96263.41
2022-12-20T02:54:01.482Z,96259.97
2022-12-20T02:56:33.517Z,96264.94
2022-12-20T02:59:07.323Z,96260.69
2022-12-20T03:01:40.870Z,96257.47
2022-12-20T03:04:10.164Z,96259.91
2022-12-20T03:06:38.160Z,96269.44
2022-12-20T03:09:06.157Z,96261.13
2022-12-20T03:11:34.171Z,96250.34
2022-12-20T03:14:02.226Z,96244.66
2022-12-20T03:16:30.272Z,96253.66
2022-12-20T03:18:59.686Z,96232.72
2022-12-20T03:21:27.593Z,96243.06
2022-12-20T03:23:55.652Z,96236.44
2022-12-20T03:26:23.759Z,96241.38
2022-12-20T03:28:51.736Z,96233.00
2022-12-20T03:31:19.854Z,96242.25
2022-12-20T03:33:47.881Z,96248.88
2022-12-20T03:36:17.417Z,96239.03
2022-12-20T03:38:45.411Z,96230.72
2022-12-20T03:41:13.437Z,96223.25
2022-12-20T03:43:41.433Z,96228.63
2022-12-20T03:46:09.581Z,96217.53
2022-12-20T03:48:37.789Z,96236.09
2022-12-20T03:51:05.803Z,96225.31
2022-12-20T03:53:35.450Z,96228.41
2022-12-20T03:56:03.659Z,96232.16
2022-12-20T03:58:31.606Z,96230.41
2022-12-20T04:01:00.200Z,96220.63
2022-12-20T04:03:28.393Z,96218.19
2022-12-20T04:05:56.476Z,96227.34
2022-12-20T04:08:24.463Z,96243.22
2022-12-20T04:11:11.473Z,96229.72
2022-12-20T04:13:39.459Z,96219.19
2022-12-20T04:16:07.719Z,96235.84
2022-12-20T04:18:36.037Z,96229.31
2022-12-20T04:21:04.560Z,96212.53
2022-12-20T04:23:32.522Z,96229.94
2022-12-20T04:26:02.672Z,96214.97
2022-12-20T04:28:31.274Z,96209.00
2022-12-20T04:31:00.224Z,96228.28
2022-12-20T04:33:29.022Z,96222.41
2022-12-20T04:35:57.193Z,96204.06
2022-12-20T04:38:25.595Z,96221.63
2022-12-20T04:40:55.916Z,96206.72
2022-12-20T04:43:26.042Z,96229.38
2022-12-20T04:45:57.265Z,96209.13
2022-12-20T04:51:15.297Z,96205.06
2022-12-20T04:53:48.171Z,96210.00
2022-12-20T04:56:18.348Z,96220.84
2022-12-20T04:58:52.167Z,96212.34
2022-12-20T05:01:20.663Z,96198.28
2022-12-20T05:03:50.611Z,96210.25
2022-12-20T05:06:19.323Z,96222.81
2022-12-20T05:08:47.476Z,96208.94
2022-12-20T05:11:16.131Z,96224.69
2022-12-20T05:13:44.177Z,96211.56
2022-12-20T05:16:14.007Z,96190.38
2022-12-20T05:18:48.452Z,96214.22
2022-12-20T05:21:34.979Z,96212.66
2022-12-20T05:24:21.363Z,96208.53
2022-12-20T05:26:49.676Z,96207.13
2022-12-20T05:32:16.612Z,96214.56
2022-12-20T05:34:44.884Z,96198.88
2022-12-20T05:37:12.879Z,96206.16
2022-12-20T05:39:55.140Z,96224.66
2022-12-20T05:42:23.273Z,96222.84
2022-12-20T05:44:51.618Z,96230.44
2022-12-20T05:47:21.111Z,96208.59
2022-12-20T05:49:49.112Z,96202.72
2022-12-20T05:52:17.142Z,96227.19
2022-12-20T05:54:45.259Z,96214.53
2022-12-20T05:57:14.709Z,96209.59
2022-12-20T05:59:43.858Z,96212.28
2022-12-20T06:02:33.429Z,96230.88
2022-12-20T06:19:48.223Z,96222.78
2022-12-20T06:26:34.069Z,96212.81
2022-12-20T06:29:22.777Z,96233.66
2022-12-20T07:32:19.370Z,96201.47
2022-12-20T07:41:34.003Z,96177.31
2022-12-20T08:13:30.786Z,96187.53
2022-12-20T08:16:44.053Z,96203.97
2022-12-20T08:43:28.360Z,96183.38
2022-12-20T08:45:59.216Z,96186.88
2022-12-20T08:51:19.002Z,96186.09
2022-12-20T09:35:09.307Z,96138.69
2022-12-20T10:11:42.015Z,96085.06
2022-12-20T10:46:18.721Z,95998.88
2022-12-20T10:58:53.248Z,95970.47
2022-12-20T11:11:28.938Z,95959.31
2022-12-20T12:14:11.547Z,95887.28
2022-12-20T12:51:46.517Z,95845.28
2022-12-20T12:57:32.815Z,95860.56
2022-12-20T13:03:10.592Z,95856.66
2022-12-20T13:09:36.910Z,95832.72
2022-12-20T13:17:10.236Z,95842.31
2022-12-20T13:50:54.210Z,95828.97
2022-12-20T13:53:39.694Z,95827.63
2022-12-20T14:52:20.923Z,95785.88
2022-12-20T15:47:41.335Z,95794.66
2022-12-20T16:28:37.824Z,95778.28
2022-12-20T16:31:12.982Z,95784.91
2022-12-20T16:36:54.841Z,95775.00
2022-12-20T16:40:07.228Z,95753.84
2022-12-20T17:03:14.714Z,95760.41
2022-12-20T17:06:04.359Z,95721.84
2022-12-20T17:11:23.338Z,95742.25
2022-12-20T17:20:33.619Z,95730.19
2022-12-20T17:23:21.686Z,95745.47
2022-12-20T17:46:44.437Z,95755.50
2022-12-20T17:49:15.917Z,95755.63
2022-12-20T17:51:45.328Z,95751.38
2022-12-20T17:54:19.875Z,95750.31
2022-12-20T17:57:06.717Z,95766.38
2022-12-20T17:59:56.729Z,95760.28
2022-12-20T18:02:50.744Z,95740.44
2022-12-20T18:05:24.954Z,95754.59
2022-12-20T18:07:54.816Z,95754.19
2022-12-20T18:10:24.291Z,95743.59
2022-12-20T18:12:52.781Z,95749.81
2022-12-20T18:15:21.432Z,95738.41
2022-12-20T18:17:51.413Z,95742.88
2022-12-20T18:20:28.415Z,95736.19
2022-12-20T18:23:02.826Z,95736.59
2022-12-20T18:25:45.350Z,95744.66
2022-12-20T18:28:15.692Z,95738.31
2022-12-20T18:30:47.660Z,95745.00
2022-12-20T18:33:18.891Z,95742.13
2022-12-20T18:35:47.024Z,95732.19
2022-12-20T18:38:18.132Z,95730.53
2022-12-20T18:40:47.347Z,95700.75
2022-12-20T18:43:15.518Z,95716.69
2022-12-20T18:45:44.347Z,95728.06
2022-12-20T18:48:12.842Z,95721.72
2022-12-20T18:50:43.829Z,95740.34
2022-12-20T18:53:12.103Z,95732.91
2022-12-20T18:55:41.273Z,95718.25
2022-12-20T18:58:09.844Z,95722.53
2022-12-20T19:00:38.329Z,95722.47
2022-12-20T19:03:08.211Z,95725.56
2022-12-20T19:05:46.417Z,95719.38
2022-12-20T19:08:16.311Z,95696.88
2022-12-20T19:10:47.490Z,95694.53
2022-12-20T19:13:16.091Z,95707.66
2022-12-20T19:15:44.690Z,95697.53
2022-12-20T19:18:13.487Z,95700.75
2022-12-20T19:20:44.476Z,95689.44
2022-12-20T19:23:12.868Z,95698.13
2022-12-20T19:25:44.196Z,95688.53
2022-12-20T19:28:13.814Z,95694.63
2022-12-20T19:30:42.604Z,95696.28
2022-12-20T19:33:11.484Z,95698.38
2022-12-20T19:35:55.450Z,95692.47
2022-12-20T19:38:25.820Z,95684.22
2022-12-20T19:40:56.066Z,95694.59
2022-12-20T19:43:24.248Z,95681.84
2022-12-20T19:45:52.618Z,95676.19
2022-12-20T19:48:21.383Z,95682.81
2022-12-20T19:50:49.737Z,95691.22
2022-12-20T19:53:17.933Z,95675.66
2022-12-20T19:55:54.845Z,95681.84
2022-12-20T19:58:24.206Z,95669.69
2022-12-20T20:00:55.660Z,95691.22
2022-12-20T20:03:30.328Z,95700.94
2022-12-20T20:06:00.247Z,95707.44
2022-12-20T20:08:28.289Z,95676.00
2022-12-20T20:11:08.809Z,95696.53
2022-12-20T20:13:38.295Z,95691.69
2022-12-20T20:16:09.504Z,95688.25
2022-12-20T20:18:39.860Z,95687.31
2022-12-20T20:21:10.522Z,95675.00
2022-12-20T20:23:39.539Z,95692.81
2022-12-20T20:26:16.511Z,95670.97
2022-12-20T20:28:45.677Z,95683.34
2022-12-20T20:31:15.809Z,95675.09
2022-12-20T20:33:45.790Z,95664.72
2022-12-20T20:36:15.327Z,95665.06
2022-12-20T20:38:44.388Z,95680.97
2022-12-20T20:41:15.459Z,95669.91
2022-12-20T20:43:44.065Z,95663.22
2022-12-20T20:46:16.419Z,95648.38
2022-12-20T20:48:45.627Z,95679.31
2022-12-20T20:51:16.934Z,95662.72
2022-12-20T20:53:45.176Z,95663.41
2022-12-20T20:56:14.715Z,95666.84
2022-12-20T20:58:48.361Z,95663.44
2022-12-20T21:01:16.789Z,95664.59
2022-12-20T21:03:46.025Z,95647.03
2022-12-20T21:09:02.573Z,95650.94
2022-12-20T21:11:33.473Z,95657.75
2022-12-20T21:14:02.737Z,95653.03
2022-12-20T21:16:30.838Z,95658.44
2022-12-20T21:19:00.501Z,95649.75
2022-12-20T21:21:29.058Z,95650.72
2022-12-20T21:23:57.445Z,95647.00
2022-12-20T21:26:26.432Z,95653.06
2022-12-20T21:28:59.667Z,95649.59
2022-12-20T21:31:28.374Z,95647.00
2022-12-20T21:33:57.017Z,95636.63
2022-12-20T21:36:25.583Z,95629.81
2022-12-20T21:38:55.702Z,95630.13
2022-12-20T21:41:26.171Z,95638.44
2022-12-20T21:43:58.861Z,95633.19
2022-12-20T21:46:27.420Z,95625.59
2022-12-20T21:48:56.494Z,95623.19
2022-12-20T21:51:25.911Z,95612.47
2022-12-20T21:53:56.293Z,95629.81
2022-12-20T21:56:26.541Z,95625.53
2022-12-20T21:58:55.324Z,95614.63
2022-12-20T22:01:26.798Z,95622.59
2022-12-20T22:03:56.439Z,95625.44
2022-12-20T22:06:25.661Z,95617.41
2022-12-20T22:08:54.089Z,95609.00
2022-12-20T22:11:22.283Z,95612.06
2022-12-20T22:13:51.384Z,95616.88
2022-12-20T22:16:22.217Z,95621.22
2022-12-20T22:18:53.495Z,95616.41
2022-12-20T22:21:24.140Z,95585.84
2022-12-20T22:23:53.315Z,95607.34
2022-12-20T22:26:23.066Z,95610.03
2022-12-20T22:28:52.977Z,95602.75
2022-12-20T22:31:21.909Z,95594.28
2022-12-20T22:33:52.810Z,95583.44
2022-12-20T22:36:21.081Z,95585.25
2022-12-20T22:38:49.627Z,95588.81
2022-12-20T22:41:20.744Z,95583.22
2022-12-20T22:43:49.305Z,95565.25
2022-12-20T22:46:19.508Z,95563.47
2022-12-20T22:48:48.246Z,95562.34
2022-12-20T22:51:20.580Z,95561.34
2022-12-20T22:53:49.950Z,95550.06
2022-12-20T22:56:21.179Z,95551.03
2022-12-20T22:58:50.322Z,95541.72
2022-12-20T23:01:20.586Z,95549.53
2022-12-20T23:03:49.168Z,95547.69
2022-12-20T23:06:20.112Z,95543.22
2022-12-20T23:08:49.096Z,95548.31
2022-12-20T23:11:37.523Z,95532.56
2022-12-20T23:14:24.122Z,95548.88
2022-12-20T23:16:52.264Z,95555.34
2022-12-20T23:19:20.419Z,95541.19
2022-12-20T23:22:15.747Z,95537.88
2022-12-20T23:24:43.705Z,95536.19
2022-12-20T23:27:11.635Z,95536.44
2022-12-20T23:29:39.580Z,95521.59
2022-12-20T23:32:07.744Z,95529.25
2022-12-20T23:34:35.687Z,95522.66
2022-12-20T23:37:04.971Z,95508.22
2022-12-20T23:39:32.915Z,95498.66
2022-12-20T23:42:01.130Z,95506.09
2022-12-20T23:44:29.084Z,95504.94
2022-12-20T23:46:57.000Z,95503.91
2022-12-20T23:49:25.030Z,95499.25
2022-12-20T23:51:53.073Z,95514.53
2022-12-20T23:54:22.690Z,95519.56
2022-12-20T23:56:51.121Z,95519.94
2022-12-20T23:59:19.038Z,95518.06
